Time;durP1;ratioP1;P1;durP2;ratioP2;P2;SDS_P1;SDS_P2;PMS_P1;PMS_P2;Temp;Humidity;BMP_temperature;BMP_pressure;BME280_temperature;BME280_humidity;BME280_pressure;Samples;Min_cycle;Max_cycle;Signal;HPM_P1;HPM_P2
2022/12/01 00:01:11;;;;;;;;;;;19.90;61.70;;;;;;1534542;76;802;-69
2022/12/01 00:03:13;;;;;;;;;;;19.80;61.30;;;;;;1534082;76;736;-69
2022/12/01 00:05:15;;;;;;;;;;;19.80;61.20;;;;;;1534913;76;1174;-69
2022/12/01 00:07:17;;;;;;;;;;;19.80;61.40;;;;;;1532785;76;1620;-69
2022/12/01 00:11:39;;;;;;;;;;;19.90;61.30;;;;;;1536902;76;1618;-68
2022/12/01 00:13:41;;;;;;;;;;;19.90;61.90;;;;;;1532823;76;1149;-68
2022/12/01 00:15:42;;;;;;;;;;;19.90;61.70;;;;;;1543719;76;730;-70
2022/12/01 00:17:46;;;;;;;;;;;19.90;61.70;;;;;;1538731;76;1940;-70
2022/12/01 00:19:48;;;;;;;;;;;19.90;61.50;;;;;;1540905;76;1463;-70
2022/12/01 00:21:50;;;;;;;;;;;19.80;61.20;;;;;;1532090;76;809;-68
2022/12/01 00:23:52;;;;;;;;;;;19.90;61.40;;;;;;1536741;76;1150;-68
2022/12/01 00:25:54;;;;;;;;;;;19.90;61.40;;;;;;1533157;76;803;-71
2022/12/01 00:27:56;;;;;;;;;;;19.90;61.20;;;;;;1540629;76;751;-70
2022/12/01 00:29:58;;;;;;;;;;;19.90;61.10;;;;;;1538745;76;774;-69
2022/12/01 00:32:00;;;;;;;;;;;20.00;60.90;;;;;;1541149;76;772;-69
2022/12/01 00:34:02;;;;;;;;;;;20.00;60.80;;;;;;1533369;76;1495;-69
2022/12/01 00:36:04;;;;;;;;;;;20.00;60.80;;;;;;1533379;76;718;-69
2022/12/01 00:38:06;;;;;;;;;;;20.00;60.80;;;;;;1545704;76;1904;-70
2022/12/01 00:40:08;;;;;;;;;;;20.00;60.60;;;;;;1543622;76;765;-69
2022/12/01 00:42:10;;;;;;;;;;;20.00;60.80;;;;;;1542493;76;606;-68
2022/12/01 00:44:12;;;;;;;;;;;20.00;60.90;;;;;;1540415;76;1117;-70
2022/12/01 00:46:14;;;;;;;;;;;20.00;61.00;;;;;;1544514;76;718;-70
2022/12/01 00:48:16;;;;;;;;;;;19.90;61.00;;;;;;1539975;76;1477;-69
2022/12/01 00:50:18;;;;;;;;;;;19.90;61.80;;;;;;1532054;76;776;-69
2022/12/01 00:52:20;;;;;;;;;;;19.90;61.40;;;;;;1544035;76;656;-69
2022/12/01 00:54:21;;;;;;;;;;;19.90;61.20;;;;;;1536710;76;1125;-70
2022/12/01 00:56:23;;;;;;;;;;;19.90;61.30;;;;;;1528621;76;704;-69
2022/12/01 00:58:25;;;;;;;;;;;19.90;61.20;;;;;;1537274;76;1908;-68
2022/12/01 01:00:27;;;;;;;;;;;20.00;61.60;;;;;;1539169;76;716;-70
2022/12/01 01:02:29;;;;;;;;;;;19.90;61.10;;;;;;1534821;76;1442;-68
2022/12/01 01:04:31;;;;;;;;;;;20.00;60.90;;;;;;1532506;76;1191;-68
2022/12/01 01:06:33;;;;;;;;;;;20.00;60.70;;;;;;1532520;76;697;-68
2022/12/01 01:08:35;;;;;;;;;;;20.00;60.50;;;;;;1534108;76;766;-68
2022/12/01 01:10:40;;;;;;;;;;;20.10;60.50;;;;;;1538897;76;729;-68
2022/12/01 01:12:42;;;;;;;;;;;20.10;60.60;;;;;;1539866;76;758;-69
2022/12/01 01:14:44;;;;;;;;;;;20.10;60.70;;;;;;1531226;76;1147;-69
2022/12/01 01:16:46;;;;;;;;;;;20.10;60.90;;;;;;1536319;76;1437;-68
2022/12/01 01:18:48;;;;;;;;;;;20.00;60.70;;;;;;1534987;76;1939;-69
2022/12/01 01:20:57;;;;;;;;;;;20.00;60.70;;;;;;1541201;76;708;-69
2022/12/01 01:22:59;;;;;;;;;;;20.00;60.70;;;;;;1526416;76;681;-67
2022/12/01 01:25:00;;;;;;;;;;;20.00;60.80;;;;;;1533846;76;1138;-69
2022/12/01 01:27:02;;;;;;;;;;;20.00;60.60;;;;;;1543854;76;712;-70
2022/12/01 01:29:08;;;;;;;;;;;20.10;60.60;;;;;;1551651;76;694;-70
2022/12/01 01:31:09;;;;;;;;;;;20.10;60.50;;;;;;1533604;76;1481;-69
2022/12/01 01:33:10;;;;;;;;;;;20.10;60.50;;;;;;1531123;76;713;-69
2022/12/01 01:35:12;;;;;;;;;;;20.10;60.40;;;;;;1539325;76;1122;-69
2022/12/01 01:37:14;;;;;;;;;;;20.10;60.30;;;;;;1542660;76;1930;-70
2022/12/01 01:39:16;;;;;;;;;;;20.10;60.30;;;;;;1544359;76;722;-70
2022/12/01 01:41:18;;;;;;;;;;;20.10;60.40;;;;;;1539981;76;716;-70
2022/12/01 01:43:40;;;;;;;;;;;20.10;60.30;;;;;;1535631;76;736;-69
2022/12/01 01:45:42;;;;;;;;;;;20.20;60.40;;;;;;1534413;76;1475;-69
2022/12/01 01:47:44;;;;;;;;;;;20.10;60.60;;;;;;1533327;76;770;-70
2022/12/01 01:49:45;;;;;;;;;;;20.00;60.40;;;;;;1533518;76;689;-69
2022/12/01 01:51:50;;;;;;;;;;;20.00;60.60;;;;;;1543500;76;709;-68
2022/12/01 01:55:57;;;;;;;;;;;20.00;60.70;;;;;;1518475;77;558;-76
2022/12/01 01:57:58;;;;;;;;;;;20.00;60.60;;;;;;1520347;77;1949;-77
2022/12/01 02:00:08;;;;;;;;;;;20.00;60.60;;;;;;1522410;76;1687;-78
2022/12/01 02:02:10;;;;;;;;;;;20.00;60.50;;;;;;1519494;76;723;-78
2022/12/01 02:04:12;;;;;;;;;;;20.00;60.40;;;;;;1524136;77;1201;-78
2022/12/01 02:06:14;;;;;;;;;;;20.00;60.50;;;;;;1516206;77;713;-76
2022/12/01 02:08:16;;;;;;;;;;;20.00;60.70;;;;;;1510772;77;867;-75
2022/12/01 02:10:21;;;;;;;;;;;20.10;60.70;;;;;;1503024;77;725;-76
2022/12/01 02:12:32;;;;;;;;;;;20.00;60.50;;;;;;1509446;77;1800;-75
2022/12/01 02:14:35;;;;;;;;;;;20.00;60.80;;;;;;1517471;77;1965;-78
2022/12/01 02:16:57;;;;;;;;;;;20.00;61.00;;;;;;1524880;77;1569;-78
2022/12/01 02:19:03;;;;;;;;;;;20.00;61.20;;;;;;1520679;77;1918;-77
2022/12/01 02:21:24;;;;;;;;;;;19.90;61.40;;;;;;1527652;76;725;-77
2022/12/01 02:23:30;;;;;;;;;;;19.90;61.30;;;;;;1520880;77;746;-77
2022/12/01 02:25:43;;;;;;;;;;;19.90;61.30;;;;;;1511644;77;1052;-78
2022/12/01 02:27:49;;;;;;;;;;;19.90;61.90;;;;;;1525167;77;1462;-77
2022/12/01 02:30:09;;;;;;;;;;;19.80;62.20;;;;;;1538434;77;804;-77
2022/12/01 02:32:15;;;;;;;;;;;19.80;61.90;;;;;;1530185;77;683;-77
2022/12/01 02:34:34;;;;;;;;;;;19.90;61.60;;;;;;1534762;76;1082;-77
2022/12/01 02:36:37;;;;;;;;;;;19.80;61.50;;;;;;1527301;76;675;-78
2022/12/01 02:38:40;;;;;;;;;;;19.90;61.50;;;;;;1515679;77;1934;-76
2022/12/01 02:40:56;;;;;;;;;;;19.90;61.70;;;;;;1531491;76;1517;-77
2022/12/01 02:43:03;;;;;;;;;;;19.80;61.90;;;;;;1495912;76;1066;-77
2022/12/01 02:45:06;;;;;;;;;;;19.80;62.10;;;;;;1530479;77;1175;-76
2022/12/01 02:47:14;;;;;;;;;;;19.90;61.80;;;;;;1520053;77;791;-77
2022/12/01 02:49:17;;;;;;;;;;;19.90;61.80;;;;;;1524017;76;807;-77
2022/12/01 02:51:20;;;;;;;;;;;19.90;61.60;;;;;;1517453;77;787;-77
2022/12/01 02:53:22;;;;;;;;;;;19.90;61.50;;;;;;1515627;77;806;-77
2022/12/01 02:55:24;;;;;;;;;;;20.00;61.40;;;;;;1514035;76;1537;-77
2022/12/01 02:57:25;;;;;;;;;;;19.90;61.50;;;;;;1516332;77;797;-78
2022/12/01 02:59:27;;;;;;;;;;;19.90;61.40;;;;;;1515877;77;1925;-78
2022/12/01 03:01:37;;;;;;;;;;;19.90;61.30;;;;;;1516847;77;823;-78
2022/12/01 03:03:47;;;;;;;;;;;19.90;61.60;;;;;;1535612;76;1204;-77
2022/12/01 03:05:53;;;;;;;;;;;19.90;61.60;;;;;;1521078;77;767;-75
2022/12/01 03:08:00;;;;;;;;;;;19.90;61.80;;;;;;1525403;76;898;-76
2022/12/01 03:10:09;;;;;;;;;;;19.90;61.80;;;;;;1521312;76;1330;-77
2022/12/01 03:12:19;;;;;;;;;;;19.90;61.90;;;;;;1516972;76;760;-78
2022/12/01 03:14:22;;;;;;;;;;;19.90;62.30;;;;;;1517090;77;1107;-77
2022/12/01 03:16:27;;;;;;;;;;;19.90;61.70;;;;;;1516281;76;939;-77
2022/12/01 03:18:33;;;;;;;;;;;19.90;62.10;;;;;;1515120;78;1937;-77
2022/12/01 03:20:46;;;;;;;;;;;19.90;61.70;;;;;;1518283;77;696;-78
2022/12/01 03:22:49;;;;;;;;;;;19.90;61.40;;;;;;1517805;76;1509;-76
2022/12/01 03:24:51;;;;;;;;;;;20.00;61.50;;;;;;1515982;77;1150;-76
2022/12/01 03:26:55;;;;;;;;;;;19.90;61.60;;;;;;1516743;77;688;-76
2022/12/01 03:29:02;;;;;;;;;;;19.90;61.30;;;;;;1521217;77;824;-78
2022/12/01 03:31:05;;;;;;;;;;;20.00;61.50;;;;;;1520284;77;1030;-77
2022/12/01 03:33:09;;;;;;;;;;;20.00;61.40;;;;;;1525695;77;716;-77
2022/12/01 03:35:13;;;;;;;;;;;20.00;61.20;;;;;;1513306;76;2234;-76
2022/12/01 03:37:23;;;;;;;;;;;20.00;61.10;;;;;;1523247;76;1552;-76
2022/12/01 03:39:26;;;;;;;;;;;20.00;61.00;;;;;;1518231;77;1918;-76
2022/12/01 03:41:29;;;;;;;;;;;20.00;60.80;;;;;;1528696;77;705;-75
2022/12/01 03:43:33;;;;;;;;;;;20.10;60.70;;;;;;1533433;77;741;-77
2022/12/01 03:45:53;;;;;;;;;;;20.00;60.80;;;;;;1515138;76;1142;-78
2022/12/01 03:47:55;;;;;;;;;;;20.10;60.70;;;;;;1519591;76;790;-77
2022/12/01 03:49:57;;;;;;;;;;;20.10;60.50;;;;;;1515627;76;801;-78
2022/12/01 03:52:02;;;;;;;;;;;20.20;60.50;;;;;;1519459;76;1308;-78
2022/12/01 03:54:11;;;;;;;;;;;20.30;60.50;;;;;;1522119;76;1132;-77
2022/12/01 03:56:13;;;;;;;;;;;20.20;60.40;;;;;;1525323;77;800;-77
2022/12/01 03:58:20;;;;;;;;;;;20.20;60.40;;;;;;1520863;77;1931;-76
2022/12/01 04:00:22;;;;;;;;;;;20.20;60.30;;;;;;1522364;77;721;-78
2022/12/01 04:02:26;;;;;;;;;;;20.10;60.30;;;;;;1526319;76;748;-76
2022/12/01 04:04:27;;;;;;;;;;;20.20;60.30;;;;;;1517678;76;1206;-77
2022/12/01 04:06:29;;;;;;;;;;;20.20;60.30;;;;;;1514619;76;1675;-77
2022/12/01 04:08:32;;;;;;;;;;;20.20;60.20;;;;;;1513247;77;736;-77
2022/12/01 04:10:34;;;;;;;;;;;20.20;60.30;;;;;;1520712;77;725;-77
2022/12/01 04:12:36;;;;;;;;;;;20.20;60.30;;;;;;1519944;77;791;-77
2022/12/01 04:14:38;;;;;;;;;;;20.20;60.30;;;;;;1519816;76;1120;-76
2022/12/01 04:16:40;;;;;;;;;;;20.20;60.40;;;;;;1544699;77;738;-75
2022/12/01 04:18:42;;;;;;;;;;;20.20;60.60;;;;;;1538072;76;1931;-75
2022/12/01 04:20:45;;;;;;;;;;;20.10;60.80;;;;;;1514318;77;707;-76
2022/12/01 04:22:47;;;;;;;;;;;20.10;60.90;;;;;;1512498;77;1747;-73
2022/12/01 04:24:49;;;;;;;;;;;20.00;60.80;;;;;;1516065;77;1132;-76
2022/12/01 04:26:51;;;;;;;;;;;20.10;60.90;;;;;;1511903;77;753;-77
2022/12/01 04:28:53;;;;;;;;;;;20.10;60.90;;;;;;1505925;77;787;-72
2022/12/01 04:30:54;;;;;;;;;;;20.10;60.90;;;;;;1540112;77;671;-75
2022/12/01 04:32:57;;;;;;;;;;;20.10;60.90;;;;;;1537861;76;1326;-77
2022/12/01 04:34:58;;;;;;;;;;;20.10;60.90;;;;;;1519732;77;1086;-77
2022/12/01 04:37:01;;;;;;;;;;;20.10;60.80;;;;;;1516442;77;734;-76
2022/12/01 04:39:03;;;;;;;;;;;20.10;60.70;;;;;;1515308;77;1932;-76
2022/12/01 04:41:09;;;;;;;;;;;20.10;61.20;;;;;;1528407;77;710;-75
2022/12/01 04:43:11;;;;;;;;;;;20.00;61.00;;;;;;1515732;77;736;-75
2022/12/01 04:45:13;;;;;;;;;;;20.00;61.20;;;;;;1518797;76;1152;-78
2022/12/01 04:47:14;;;;;;;;;;;20.00;61.20;;;;;;1514251;76;1603;-76
2022/12/01 04:49:16;;;;;;;;;;;20.00;61.70;;;;;;1513608;76;740;-76
2022/12/01 04:51:20;;;;;;;;;;;19.90;61.40;;;;;;1514466;77;750;-76
2022/12/01 04:53:22;;;;;;;;;;;20.00;61.30;;;;;;1530301;76;712;-77
2022/12/01 04:55:24;;;;;;;;;;;20.00;61.50;;;;;;1536182;75;1179;-77
2022/12/01 04:57:26;;;;;;;;;;;20.00;61.30;;;;;;1522467;77;784;-75
2022/12/01 04:59:28;;;;;;;;;;;20.00;61.40;;;;;;1533489;77;1947;-77
2022/12/01 05:01:30;;;;;;;;;;;20.00;61.20;;;;;;1539589;76;1536;-77
2022/12/01 05:03:32;;;;;;;;;;;20.00;61.10;;;;;;1524972;76;731;-77
2022/12/01 05:05:34;;;;;;;;;;;20.00;61.10;;;;;;1536112;77;1146;-78
2022/12/01 05:07:35;;;;;;;;;;;20.00;61.30;;;;;;1528136;77;687;-77
2022/12/01 05:09:38;;;;;;;;;;;20.00;61.30;;;;;;1509456;77;743;-76
2022/12/01 05:11:39;;;;;;;;;;;20.00;61.30;;;;;;1518308;77;780;-77
2022/12/01 05:13:42;;;;;;;;;;;20.00;61.30;;;;;;1532032;77;738;-77
2022/12/01 05:15:44;;;;;;;;;;;20.00;61.40;;;;;;1534429;76;1421;-76
2022/12/01 05:17:46;;;;;;;;;;;20.00;61.20;;;;;;1526640;76;804;-79
2022/12/01 05:22:07;;;;;;;;;;;20.00;61.00;;;;;;1514067;77;665;-77
2022/12/01 05:24:09;;;;;;;;;;;20.00;61.20;;;;;;1520567;77;1149;-77
2022/12/01 05:26:11;;;;;;;;;;;19.90;61.50;;;;;;1508877;77;738;-76
2022/12/01 05:28:13;;;;;;;;;;;20.00;61.30;;;;;;1521199;77;756;-77
2022/12/01 05:30:15;;;;;;;;;;;19.90;62.00;;;;;;1526143;76;1572;-78
2022/12/01 05:32:17;;;;;;;;;;;20.00;61.50;;;;;;1506153;77;850;-76
2022/12/01 05:34:19;;;;;;;;;;;20.00;61.40;;;;;;1516734;77;1120;-78
2022/12/01 05:36:21;;;;;;;;;;;20.00;61.70;;;;;;1519938;77;708;-77
2022/12/01 05:38:22;;;;;;;;;;;20.00;61.30;;;;;;1517112;77;722;-76
2022/12/01 05:40:24;;;;;;;;;;;20.00;61.30;;;;;;1528678;77;1949;-79
2022/12/01 05:42:26;;;;;;;;;;;20.00;61.30;;;;;;1516950;77;773;-79
2022/12/01 05:44:28;;;;;;;;;;;20.00;61.20;;;;;;1518152;76;1614;-79
2022/12/01 05:46:30;;;;;;;;;;;20.00;61.20;;;;;;1521331;76;770;-78
2022/12/01 05:48:32;;;;;;;;;;;20.00;61.00;;;;;;1523906;77;733;-79
2022/12/01 05:50:37;;;;;;;;;;;20.00;61.00;;;;;;1516613;77;728;-79
2022/12/01 05:52:38;;;;;;;;;;;20.00;60.90;;;;;;1487761;78;1159;-79
2022/12/01 05:54:40;;;;;;;;;;;20.10;61.20;;;;;;1530771;75;1053;-77
2022/12/01 05:56:42;;;;;;;;;;;20.10;61.40;;;;;;1529694;77;713;-76
2022/12/01 05:58:43;;;;;;;;;;;20.00;61.10;;;;;;1517307;76;1942;-78
2022/12/01 06:00:45;;;;;;;;;;;20.00;61.60;;;;;;1521635;75;723;-78
2022/12/01 06:02:47;;;;;;;;;;;20.00;62.10;;;;;;1517195;77;736;-74
2022/12/01 06:04:49;;;;;;;;;;;19.90;61.90;;;;;;1521756;77;1209;-77
2022/12/01 06:06:51;;;;;;;;;;;20.00;61.80;;;;;;1516183;77;718;-77
2022/12/01 06:08:53;;;;;;;;;;;19.90;61.80;;;;;;1519623;77;734;-74
2022/12/01 06:10:55;;;;;;;;;;;20.00;61.50;;;;;;1520258;77;880;-77
2022/12/01 06:12:57;;;;;;;;;;;20.00;61.60;;;;;;1516890;76;1536;-79
2022/12/01 06:14:59;;;;;;;;;;;20.00;61.60;;;;;;1517448;76;1124;-76
2022/12/01 06:17:01;;;;;;;;;;;20.00;61.40;;;;;;1534866;77;731;-77
2022/12/01 06:19:02;;;;;;;;;;;20.00;61.70;;;;;;1539944;77;1949;-76
2022/12/01 06:21:05;;;;;;;;;;;20.00;61.70;;;;;;1535230;77;743;-77
2022/12/01 06:23:06;;;;;;;;;;;20.00;61.50;;;;;;1531432;77;729;-77
2022/12/01 06:25:09;;;;;;;;;;;20.00;61.50;;;;;;1531746;77;1129;-75
2022/12/01 06:27:11;;;;;;;;;;;20.00;61.70;;;;;;1521560;77;1643;-72
2022/12/01 06:29:12;;;;;;;;;;;20.00;62.40;;;;;;1515661;77;749;-72
2022/12/01 06:31:14;;;;;;;;;;;19.90;62.30;;;;;;1520077;76;712;-71
2022/12/01 06:33:16;;;;;;;;;;;19.80;62.20;;;;;;1519432;77;808;-75
2022/12/01 06:35:18;;;;;;;;;;;19.90;62.20;;;;;;1525856;77;1133;-71
2022/12/01 06:37:21;;;;;;;;;;;19.80;62.20;;;;;;1517358;77;818;-72
2022/12/01 06:39:23;;;;;;;;;;;19.80;62.10;;;;;;1511120;77;1930;-73
2022/12/01 06:41:24;;;;;;;;;;;19.80;62.20;;;;;;1537589;77;831;-72
2022/12/01 06:43:26;;;;;;;;;;;19.80;62.10;;;;;;1513865;77;752;-70
2022/12/01 06:45:29;;;;;;;;;;;19.80;62.00;;;;;;1537669;76;1080;-71
2022/12/01 06:47:30;;;;;;;;;;;19.80;62.00;;;;;;1527520;75;644;-70
2022/12/01 06:49:32;;;;;;;;;;;19.80;62.00;;;;;;1539878;77;671;-71
2022/12/01 06:51:34;;;;;;;;;;;19.90;62.00;;;;;;1517968;77;716;-70
2022/12/01 06:53:36;;;;;;;;;;;19.80;61.90;;;;;;1510289;76;1245;-72
2022/12/01 06:55:38;;;;;;;;;;;19.80;61.90;;;;;;1509499;77;1135;-71
2022/12/01 06:57:40;;;;;;;;;;;19.90;61.90;;;;;;1528337;77;807;-71
2022/12/01 06:59:42;;;;;;;;;;;19.80;61.80;;;;;;1509323;77;1931;-72
2022/12/01 07:01:44;;;;;;;;;;;19.80;61.80;;;;;;1507005;76;734;-70
2022/12/01 07:03:49;;;;;;;;;;;19.80;61.90;;;;;;1509561;76;732;-69
2022/12/01 07:05:57;;;;;;;;;;;19.80;61.80;;;;;;1503195;77;768;-69
2022/12/01 07:07:59;;;;;;;;;;;19.90;61.90;;;;;;1513604;76;1571;-71
2022/12/01 07:10:01;;;;;;;;;;;19.90;61.80;;;;;;1513977;77;805;-73
2022/12/01 07:12:03;;;;;;;;;;;19.80;61.80;;;;;;1516907;77;740;-71
2022/12/01 07:14:05;;;;;;;;;;;19.90;61.80;;;;;;1520515;77;1148;-69
2022/12/01 07:16:07;;;;;;;;;;;19.80;61.80;;;;;;1513261;76;736;-70
2022/12/01 07:18:09;;;;;;;;;;;19.80;61.80;;;;;;1504417;76;738;-71
2022/12/01 07:20:11;;;;;;;;;;;19.80;61.80;;;;;;1511235;77;1945;-68
2022/12/01 07:22:13;;;;;;;;;;;19.80;61.80;;;;;;1527906;77;1548;-71
2022/12/01 07:24:15;;;;;;;;;;;19.90;61.90;;;;;;1506152;77;1154;-69
2022/12/01 07:26:17;;;;;;;;;;;19.80;61.80;;;;;;1528705;77;735;-71
2022/12/01 07:28:19;;;;;;;;;;;19.90;61.80;;;;;;1533657;77;775;-72
2022/12/01 07:30:21;;;;;;;;;;;19.90;61.90;;;;;;1527374;76;748;-71
2022/12/01 07:32:22;;;;;;;;;;;19.90;61.90;;;;;;1532297;77;730;-71
2022/12/01 07:34:24;;;;;;;;;;;19.80;61.80;;;;;;1507353;77;1222;-72
2022/12/01 07:36:26;;;;;;;;;;;19.90;61.80;;;;;;1511991;76;1530;-72
2022/12/01 07:38:28;;;;;;;;;;;19.90;61.90;;;;;;1514050;77;817;-71
2022/12/01 07:40:30;;;;;;;;;;;19.80;61.80;;;;;;1523513;77;1906;-71
2022/12/01 07:42:32;;;;;;;;;;;19.90;61.80;;;;;;1510449;77;758;-72
2022/12/01 07:44:34;;;;;;;;;;;19.90;61.80;;;;;;1517085;76;1182;-70
2022/12/01 07:46:36;;;;;;;;;;;19.90;61.80;;;;;;1515302;77;762;-72
2022/12/01 07:48:38;;;;;;;;;;;19.90;61.80;;;;;;1515189;77;770;-71
2022/12/01 07:50:40;;;;;;;;;;;19.80;61.80;;;;;;1528212;76;1352;-71
2022/12/01 07:52:41;;;;;;;;;;;19.80;61.80;;;;;;1532839;77;759;-71
2022/12/01 07:54:43;;;;;;;;;;;19.90;61.80;;;;;;1511556;71;2075;-68
2022/12/01 07:56:45;;;;;;;;;;;19.80;61.80;;;;;;1504685;77;516;-69
2022/12/01 07:58:47;;;;;;;;;;;19.90;61.80;;;;;;1489300;78;784;-69
2022/12/01 08:00:49;;;;;;;;;;;19.90;61.80;;;;;;1480911;78;1930;-69
2022/12/01 08:02:51;;;;;;;;;;;19.90;61.80;;;;;;1504220;77;755;-68
2022/12/01 08:04:53;;;;;;;;;;;19.90;61.80;;;;;;1512936;77;1508;-71
2022/12/01 08:06:55;;;;;;;;;;;19.90;61.80;;;;;;1481989;79;712;-71
2022/12/01 08:08:56;;;;;;;;;;;19.90;61.80;;;;;;1481994;78;750;-73
2022/12/01 08:11:03;;;;;;;;;;;19.90;61.80;;;;;;1492824;78;782;-72
2022/12/01 08:13:04;;;;;;;;;;;19.90;61.80;;;;;;1468628;78;749;-72
2022/12/01 08:15:07;;;;;;;;;;;19.80;61.80;;;;;;1481834;78;1185;-72
2022/12/01 08:17:08;;;;;;;;;;;19.90;61.80;;;;;;1464266;79;804;-74
2022/12/01 08:19:10;;;;;;;;;;;19.80;61.80;;;;;;1489961;78;1527;-73
2022/12/01 08:21:13;;;;;;;;;;;19.80;61.70;;;;;;1499551;77;1945;-73
2022/12/01 08:23:15;;;;;;;;;;;19.90;61.80;;;;;;1512545;77;683;-72
2022/12/01 08:25:17;;;;;;;;;;;19.90;61.90;;;;;;1511550;77;1099;-72
2022/12/01 08:27:18;;;;;;;;;;;19.80;61.80;;;;;;1500012;77;756;-73
2022/12/01 08:29:20;;;;;;;;;;;19.80;61.80;;;;;;1505679;77;730;-73
2022/12/01 08:31:23;;;;;;;;;;;19.90;61.90;;;;;;1494014;77;634;-73
2022/12/01 08:33:25;;;;;;;;;;;19.80;61.80;;;;;;1517282;77;1515;-71
2022/12/01 08:35:27;;;;;;;;;;;19.90;61.90;;;;;;1479999;79;1143;-73
2022/12/01 08:37:29;;;;;;;;;;;19.90;61.90;;;;;;1489536;79;707;-73
2022/12/01 08:39:31;;;;;;;;;;;19.90;61.90;;;;;;1498398;79;723;-73
2022/12/01 08:41:33;;;;;;;;;;;19.90;61.90;;;;;;1494595;77;1943;-72
2022/12/01 08:43:38;;;;;;;;;;;19.90;61.90;;;;;;1509226;78;706;-72
2022/12/01 08:45:38;;;;;;;;;;;19.90;61.90;;;;;;1483514;79;1148;-72
2022/12/01 08:47:40;;;;;;;;;;;19.90;61.90;;;;;;1473098;79;1448;-72
2022/12/01 08:49:42;;;;;;;;;;;19.90;61.90;;;;;;1481957;78;693;-72
2022/12/01 08:51:44;;;;;;;;;;;19.90;61.90;;;;;;1499014;79;709;-73
2022/12/01 08:53:46;;;;;;;;;;;19.90;62.00;;;;;;1488271;77;720;-71
2022/12/01 08:55:48;;;;;;;;;;;20.00;61.90;;;;;;1496387;77;1144;-72
2022/12/01 08:57:50;;;;;;;;;;;19.90;61.90;;;;;;1487678;78;733;-72
2022/12/01 08:59:52;;;;;;;;;;;19.90;61.90;;;;;;1480451;78;1946;-72
2022/12/01 09:01:56;;;;;;;;;;;19.90;61.80;;;;;;1502347;78;1514;-71
2022/12/01 09:04:10;;;;;;;;;;;19.90;61.90;;;;;;1494104;78;1010;-72
2022/12/01 09:06:11;;;;;;;;;;;19.90;61.90;;;;;;1493043;77;1206;-72
2022/12/01 09:08:31;;;;;;;;;;;20.00;61.90;;;;;;1504329;77;704;-73
2022/12/01 09:10:32;;;;;;;;;;;19.90;61.90;;;;;;1507133;78;627;-72
2022/12/01 09:12:34;;;;;;;;;;;19.90;61.90;;;;;;1509344;77;705;-73
2022/12/01 09:14:41;;;;;;;;;;;19.80;61.90;;;;;;1483961;78;1428;-72
2022/12/01 09:16:43;;;;;;;;;;;19.80;62.00;;;;;;1479221;78;704;-76
2022/12/01 09:18:45;;;;;;;;;;;19.80;61.90;;;;;;1480131;78;778;-71
2022/12/01 09:20:47;;;;;;;;;;;19.80;62.00;;;;;;1510282;77;1919;-71
2022/12/01 09:22:49;;;;;;;;;;;19.90;62.10;;;;;;1507002;77;611;-71
2022/12/01 09:24:51;;;;;;;;;;;19.90;62.10;;;;;;1507830;77;1140;-71
2022/12/01 09:26:56;;;;;;;;;;;19.90;62.10;;;;;;1510561;77;763;-71
2022/12/01 09:28:59;;;;;;;;;;;19.90;62.10;;;;;;1502110;77;1434;-71
2022/12/01 09:31:05;;;;;;;;;;;19.90;62.10;;;;;;1507100;77;692;-70
2022/12/01 09:33:07;;;;;;;;;;;19.90;62.10;;;;;;1507790;77;728;-72
2022/12/01 09:35:09;;;;;;;;;;;19.90;62.10;;;;;;1511003;77;1157;-71
2022/12/01 09:37:11;;;;;;;;;;;19.90;62.10;;;;;;1508041;77;733;-71
2022/12/01 09:39:13;;;;;;;;;;;19.90;62.10;;;;;;1510295;77;750;-71
2022/12/01 09:41:17;;;;;;;;;;;19.90;62.10;;;;;;1507976;77;1919;-71
2022/12/01 09:43:20;;;;;;;;;;;19.90;62.20;;;;;;1500656;77;1428;-70
2022/12/01 09:45:23;;;;;;;;;;;19.90;62.10;;;;;;1508305;77;1108;-72
2022/12/01 09:47:26;;;;;;;;;;;19.90;62.20;;;;;;1505737;77;1069;-71
2022/12/01 09:49:29;;;;;;;;;;;19.90;62.20;;;;;;1504797;77;712;-71
2022/12/01 09:51:33;;;;;;;;;;;19.90;62.20;;;;;;1505211;77;1265;-71
2022/12/01 09:53:35;;;;;;;;;;;19.90;62.20;;;;;;1481356;78;1121;-71
2022/12/01 09:55:37;;;;;;;;;;;19.90;62.20;;;;;;1511679;77;1128;-72
2022/12/01 09:57:39;;;;;;;;;;;19.90;62.20;;;;;;1482149;78;1475;-71
2022/12/01 09:59:42;;;;;;;;;;;19.90;62.20;;;;;;1439758;80;744;-71
2022/12/01 10:01:44;;;;;;;;;;;19.90;62.20;;;;;;1478260;78;1933;-71
2022/12/01 10:03:47;;;;;;;;;;;19.90;62.20;;;;;;1505477;77;692;-71
2022/12/01 10:05:50;;;;;;;;;;;19.90;62.20;;;;;;1504964;77;1144;-68
2022/12/01 10:08:05;;;;;;;;;;;19.90;62.20;;;;;;1501080;77;602;-71
2022/12/01 10:10:08;;;;;;;;;;;19.90;62.20;;;;;;1507547;77;627;-71
2022/12/01 10:12:14;;;;;;;;;;;19.90;62.20;;;;;;1478825;79;1611;-70
2022/12/01 10:14:17;;;;;;;;;;;19.90;62.20;;;;;;1482874;78;1106;-71
2022/12/01 10:16:23;;;;;;;;;;;19.90;62.30;;;;;;1492051;77;753;-70
2022/12/01 10:18:31;;;;;;;;;;;19.90;62.20;;;;;;1497911;77;1401;-69
2022/12/01 10:20:35;;;;;;;;;;;19.90;62.30;;;;;;1500181;79;1941;-69
2022/12/01 10:22:41;;;;;;;;;;;19.90;62.30;;;;;;1494897;77;823;-71
2022/12/01 10:24:45;;;;;;;;;;;19.90;62.30;;;;;;1498537;77;1498;-72
2022/12/01 10:26:57;;;;;;;;;;;19.90;62.30;;;;;;1490020;77;1710;-71
2022/12/01 10:29:04;;;;;;;;;;;19.90;62.40;;;;;;1465100;79;988;-71
2022/12/01 10:31:07;;;;;;;;;;;19.90;62.30;;;;;;1476342;78;1843;-71
2022/12/01 10:33:26;;;;;;;;;;;19.90;62.30;;;;;;1505425;77;1616;-71
2022/12/01 10:35:30;;;;;;;;;;;20.00;62.40;;;;;;1503629;77;1166;-70
2022/12/01 10:37:32;;;;;;;;;;;19.90;62.30;;;;;;1476566;78;880;-70
2022/12/01 10:39:35;;;;;;;;;;;19.90;62.30;;;;;;1497839;77;1442;-71
2022/12/01 10:41:36;;;;;;;;;;;19.90;62.30;;;;;;1457501;80;1943;-71
2022/12/01 10:43:39;;;;;;;;;;;19.90;62.30;;;;;;1493963;78;717;-71
2022/12/01 10:45:41;;;;;;;;;;;20.00;62.40;;;;;;1479565;78;1133;-71
2022/12/01 10:48:01;;;;;;;;;;;19.90;62.40;;;;;;1505809;77;752;-72
2022/12/01 10:50:03;;;;;;;;;;;19.90;62.40;;;;;;1501467;77;692;-70
2022/12/01 10:52:05;;;;;;;;;;;20.00;62.30;;;;;;1493426;78;680;-70
2022/12/01 10:54:10;;;;;;;;;;;19.90;62.30;;;;;;1469224;78;1468;-69
2022/12/01 10:56:20;;;;;;;;;;;19.90;62.30;;;;;;1480944;78;1093;-71
2022/12/01 10:58:22;;;;;;;;;;;19.90;62.30;;;;;;1497352;77;632;-72
2022/12/01 11:00:25;;;;;;;;;;;19.90;62.30;;;;;;1500491;77;684;-70
2022/12/01 11:02:27;;;;;;;;;;;19.90;62.30;;;;;;1506284;77;1929;-70
2022/12/01 11:04:47;;;;;;;;;;;20.00;62.30;;;;;;1510734;77;1185;-71
2022/12/01 11:06:49;;;;;;;;;;;19.90;62.30;;;;;;1479712;78;1431;-70
2022/12/01 11:08:52;;;;;;;;;;;19.90;62.30;;;;;;1506897;77;596;-71
2022/12/01 11:10:54;;;;;;;;;;;20.00;62.30;;;;;;1506316;77;1008;-70
2022/12/01 11:12:57;;;;;;;;;;;19.90;62.30;;;;;;1506421;77;886;-70
2022/12/01 11:14:59;;;;;;;;;;;19.90;62.40;;;;;;1503453;77;1240;-71
2022/12/01 11:17:02;;;;;;;;;;;19.90;62.40;;;;;;1504765;77;716;-71
2022/12/01 11:19:18;;;;;;;;;;;19.90;62.40;;;;;;1503318;77;1098;-71
2022/12/01 11:21:26;;;;;;;;;;;19.90;62.40;;;;;;1475883;78;1956;-72
2022/12/01 11:23:28;;;;;;;;;;;19.90;62.40;;;;;;1497125;77;688;-70
2022/12/01 11:25:30;;;;;;;;;;;20.00;62.40;;;;;;1501032;77;1148;-70
2022/12/01 11:27:34;;;;;;;;;;;19.90;62.40;;;;;;1485127;78;617;-71
2022/12/01 11:29:36;;;;;;;;;;;19.90;62.40;;;;;;1479258;78;677;-70
2022/12/01 11:31:42;;;;;;;;;;;20.00;62.40;;;;;;1480256;78;736;-70
2022/12/01 11:33:48;;;;;;;;;;;19.90;62.40;;;;;;1498095;78;696;-72
2022/12/01 11:35:50;;;;;;;;;;;19.90;62.30;;;;;;1498536;77;1423;-71
2022/12/01 11:37:53;;;;;;;;;;;19.90;62.30;;;;;;1489482;77;694;-72
2022/12/01 11:39:54;;;;;;;;;;;20.00;62.30;;;;;;1499037;77;765;-72
2022/12/01 11:41:57;;;;;;;;;;;19.90;62.30;;;;;;1499898;77;1938;-69
2022/12/01 11:44:00;;;;;;;;;;;19.90;62.30;;;;;;1499457;77;732;-71
2022/12/01 11:46:03;;;;;;;;;;;19.90;62.40;;;;;;1497551;77;1115;-70
2022/12/01 11:48:17;;;;;;;;;;;19.90;62.40;;;;;;1499695;77;720;-70
2022/12/01 11:50:23;;;;;;;;;;;19.90;62.40;;;;;;1498997;77;1596;-70
2022/12/01 11:52:26;;;;;;;;;;;20.00;62.40;;;;;;1501428;77;725;-70
2022/12/01 11:54:28;;;;;;;;;;;20.00;62.40;;;;;;1495800;77;1166;-70
2022/12/01 11:56:30;;;;;;;;;;;19.90;62.40;;;;;;1499423;77;737;-71
2022/12/01 11:58:32;;;;;;;;;;;19.90;62.50;;;;;;1499998;77;732;-70
2022/12/01 12:00:35;;;;;;;;;;;19.90;62.50;;;;;;1496089;77;723;-70
2022/12/01 12:02:54;;;;;;;;;;;19.90;62.50;;;;;;1497412;79;1945;-74
2022/12/01 12:04:57;;;;;;;;;;;19.90;62.50;;;;;;1495674;77;1191;-70
2022/12/01 12:07:01;;;;;;;;;;;19.90;62.50;;;;;;1498550;77;732;-69
2022/12/01 12:09:14;;;;;;;;;;;19.90;62.40;;;;;;1499568;77;630;-70
2022/12/01 12:11:26;;;;;;;;;;;19.90;62.40;;;;;;1494121;77;949;-70
2022/12/01 12:13:30;;;;;;;;;;;19.90;62.40;;;;;;1497300;77;1216;-70
2022/12/01 12:15:33;;;;;;;;;;;19.90;62.50;;;;;;1499012;77;1173;-70
2022/12/01 12:17:43;;;;;;;;;;;19.90;62.50;;;;;;1463736;77;1470;-70
2022/12/01 12:19:52;;;;;;;;;;;19.90;62.40;;;;;;1500818;77;763;-70
2022/12/01 12:22:08;;;;;;;;;;;20.00;62.50;;;;;;1497502;77;1934;-70